Terminal Aerodrome Forecast
Issued by NWS

Home | Current Version | Previous Version | Graphics & Text | Print | Product List | Glossary On
Versions: 1 2 3 4 5 6 7 8 9 10 11 12 13 14 15 16 17 18 19 20 21 22 23 24 25 26
000
FTUS43 KABR 242300
TAFATY
TAF
KATY 242330Z 2500/2524 VRB05KT P6SM -RASN OVC025
      TEMPO 2500/2501 3SM -SN BR OVC015
     FM250400 35014KT 2SM -SN BR OVC007
     FM251400 36009KT P6SM OVC015=

USA.gov is the U.S. government's official web portal to all federal, state and local government web resources and services.